Time;durP1;ratioP1;P1;durP2;ratioP2;P2;SDS_P1;SDS_P2;PMS_P1;PMS_P2;Temp;Humidity;BMP_temperature;BMP_pressure;BME280_temperature;BME280_humidity;BME280_pressure;Samples;Min_cycle;Max_cycle;Signal;HPM_P1;HPM_P2
2022/10/02 00:00:06;;;;;;;17.80;11.75;;;;;;;16.29;100.00;99606.91;1737527;82;21718;-78
2022/10/02 00:03:22;;;;;;;19.87;12.07;;;;;;;16.26;100.00;99598.23;1736512;82;21233;-79
2022/10/02 00:06:32;;;;;;;25.80;14.55;;;;;;;16.30;100.00;99596.70;1737109;82;21245;-79
2022/10/02 00:09:58;;;;;;;22.17;13.20;;;;;;;16.30;100.00;99593.95;1738031;82;21217;-79
2022/10/02 00:13:08;;;;;;;15.83;12.30;;;;;;;16.28;100.00;99597.48;1737564;82;21178;-79
2022/10/02 00:16:33;;;;;;;24.80;13.00;;;;;;;16.28;100.00;99598.87;1716217;82;21760;-79
2022/10/02 00:19:40;;;;;;;24.57;13.93;;;;;;;16.16;100.00;99606.21;1737604;82;21812;-79
2022/10/02 00:22:51;;;;;;;41.15;14.87;;;;;;;16.15;100.00;99608.67;1737456;82;21209;-78
2022/10/02 00:26:14;;;;;;;22.35;13.55;;;;;;;16.22;100.00;99601.98;1736187;82;21839;-78
2022/10/02 00:29:33;;;;;;;25.72;13.75;;;;;;;16.20;100.00;99610.20;1720497;82;21308;-78
2022/10/02 00:33:06;;;;;;;24.15;13.22;;;;;;;16.22;100.00;99599.77;1737340;82;21226;-79
2022/10/02 00:36:42;;;;;;;32.73;14.63;;;;;;;16.24;100.00;99601.23;1737453;82;21206;-79
2022/10/02 00:40:38;;;;;;;22.45;13.88;;;;;;;16.32;100.00;99596.77;1737593;82;21190;-79
2022/10/02 00:43:53;;;;;;;31.70;13.95;;;;;;;16.29;100.00;99595.86;1654906;82;21296;-79
2022/10/02 00:47:19;;;;;;;26.37;14.23;;;;;;;16.31;100.00;99598.38;1737532;82;21194;-79
2022/10/02 00:50:55;;;;;;;29.37;15.10;;;;;;;16.34;100.00;99603.45;1736815;82;21201;-79
2022/10/02 00:54:36;;;;;;;31.48;13.55;;;;;;;16.39;100.00;99600.84;1737514;82;21241;-78
2022/10/02 00:58:21;;;;;;;29.27;15.70;;;;;;;16.47;100.00;99594.17;1736093;82;21206;-79
2022/10/02 01:01:31;;;;;;;21.77;14.30;;;;;;;16.56;100.00;99592.75;1737626;82;21748;-79
2022/10/02 01:04:42;;;;;;;34.27;17.02;;;;;;;16.56;100.00;99589.98;1735762;82;21285;-79
2022/10/02 01:07:48;;;;;;;27.65;16.12;;;;;;;16.57;100.00;99585.64;1737422;82;21202;-77
2022/10/02 01:10:54;;;;;;;34.23;16.07;;;;;;;16.59;100.00;99575.73;1737721;82;22435;-79
2022/10/02 01:14:01;;;;;;;29.42;17.70;;;;;;;16.57;100.00;99572.38;1736269;82;21257;-79
2022/10/02 01:17:06;;;;;;;32.20;14.75;;;;;;;16.61;100.00;99577.19;1737666;82;21206;-79
2022/10/02 01:20:16;;;;;;;22.30;14.80;;;;;;;16.64;100.00;99570.89;1736252;82;21225;-79
2022/10/02 01:23:34;;;;;;;31.52;17.15;;;;;;;16.81;100.00;99566.44;1717476;82;21210;-78
2022/10/02 01:26:40;;;;;;;33.70;16.32;;;;;;;16.82;100.00;99567.57;1737592;82;21198;-79
2022/10/02 01:29:46;;;;;;;27.55;16.17;;;;;;;16.82;100.00;99567.57;1736020;82;21209;-78
2022/10/02 01:33:00;;;;;;;35.60;18.05;;;;;;;16.87;100.00;99553.05;1737633;82;21765;-78
2022/10/02 01:36:06;;;;;;;39.33;19.27;;;;;;;16.93;100.00;99546.58;1737655;82;21174;-78
2022/10/02 01:39:12;;;;;;;36.17;18.25;;;;;;;16.84;100.00;99541.09;1736962;82;21257;-78
2022/10/02 01:42:18;;;;;;;31.55;18.90;;;;;;;16.98;100.00;99539.80;1737639;82;21250;-78
2022/10/02 01:45:23;;;;;;;27.58;18.85;;;;;;;17.00;100.00;99532.67;1736424;81;21221;-78
2022/10/02 01:48:47;;;;;;;45.58;21.02;;;;;;;17.03;100.00;99527.53;1737365;82;21206;-78
2022/10/02 01:52:20;;;;;;;51.18;24.05;;;;;;;16.92;100.00;99524.19;1736580;82;21214;-79
2022/10/02 01:55:55;;;;;;;42.78;23.87;;;;;;;16.90;100.00;99530.50;1737570;82;21840;-79
2022/10/02 01:59:21;;;;;;;52.60;25.70;;;;;;;16.78;100.00;99529.61;1737097;82;21277;-79
2022/10/02 02:02:45;;;;;;;40.75;23.98;;;;;;;16.79;100.00;99523.00;1720378;82;21198;-79
2022/10/02 02:06:11;;;;;;;38.70;23.15;;;;;;;16.80;100.00;99519.19;1736319;82;21277;-79
2022/10/02 02:09:43;;;;;;;41.48;23.40;;;;;;;16.76;100.00;99502.78;1737029;82;21257;-79
2022/10/02 02:13:10;;;;;;;35.10;23.07;;;;;;;16.60;100.00;99502.33;1737568;82;21194;-79
2022/10/02 02:16:48;;;;;;;45.25;25.82;;;;;;;16.67;100.00;99487.60;1737603;82;21756;-79
2022/10/02 02:20:01;;;;;;;54.88;25.10;;;;;;;16.69;100.00;99474.38;1736150;82;21237;-79
2022/10/02 02:23:14;;;;;;;40.33;21.90;;;;;;;16.60;100.00;99463.67;1737525;82;21198;-78
2022/10/02 02:26:21;;;;;;;32.70;19.75;;;;;;;16.68;100.00;99449.23;1737520;82;21234;-79
2022/10/02 02:29:26;;;;;;;43.45;22.98;;;;;;;16.66;100.00;99448.66;1737062;82;21804;-79
2022/10/02 02:32:33;;;;;;;39.88;23.32;;;;;;;16.59;100.00;99438.53;1737603;82;21190;-79
2022/10/02 02:35:43;;;;;;;37.40;20.72;;;;;;;16.57;100.00;99426.89;1736448;82;21241;-79
2022/10/02 02:38:54;;;;;;;;;;;;;;;16.58;100.00;99423.05;1739632;82;21202;-79
2022/10/02 02:42:04;;;;;;;37.17;19.10;;;;;;;16.46;100.00;99419.41;1737215;82;20265;-79
2022/10/02 02:45:23;;;;;;;32.35;18.32;;;;;;;16.45;100.00;99412.22;1736343;81;21876;-79
2022/10/02 02:48:35;;;;;;;29.72;17.80;;;;;;;16.48;100.00;99411.75;1737429;82;21216;-79
2022/10/02 02:51:45;;;;;;;25.52;15.50;;;;;;;16.39;100.00;99408.19;1737377;82;21241;-79
2022/10/02 02:55:14;;;;;;;25.75;16.85;;;;;;;16.46;100.00;99408.91;1717778;82;21204;-79
2022/10/02 02:58:28;;;;;;;32.28;18.05;;;;;;;16.51;100.00;99414.02;1718979;83;21192;-79
2022/10/02 03:01:34;;;;;;;39.92;18.85;;;;;;;16.52;100.00;99410.20;1716300;83;21223;-79
2022/10/02 03:04:41;;;;;;;32.13;17.20;;;;;;;16.51;100.00;99401.59;1718647;83;21255;-78
2022/10/02 03:07:47;;;;;;;29.52;17.30;;;;;;;16.47;100.00;99399.04;1718597;83;21259;-79
2022/10/02 03:11:28;;;;;;;30.27;15.20;;;;;;;16.55;100.00;99396.45;1717458;83;21211;-79
2022/10/02 03:14:47;;;;;;;21.70;14.20;;;;;;;16.51;100.00;99402.14;1717448;83;21255;-79
2022/10/02 03:18:19;;;;;;;21.52;11.95;;;;;;;16.53;100.00;99393.94;1718748;83;21223;-79
2022/10/02 03:21:38;;;;;;;24.35;14.20;;;;;;;16.54;100.00;99385.12;1671549;83;21232;-79
2022/10/02 03:24:52;;;;;;;18.85;11.80;;;;;;;16.41;100.00;99382.56;1719186;83;21730;-79
2022/10/02 03:31:35;;;;;;;21.90;12.07;;;;;;;16.36;100.00;99369.48;1561486;91;21350;-78
2022/10/02 03:34:40;;;;;;;19.52;10.95;;;;;;;16.32;100.00;99364.96;1613406;89;21227;-78
2022/10/02 03:37:56;;;;;;;19.23;10.00;;;;;;;16.26;100.00;99363.16;1640876;87;21259;-78
2022/10/02 03:41:02;;;;;;;20.05;10.88;;;;;;;16.24;100.00;99354.83;1640209;87;21263;-79
2022/10/02 03:44:08;;;;;;;16.93;9.30;;;;;;;16.03;100.00;99357.03;1639505;87;21233;-79
2022/10/02 03:47:13;;;;;;;15.53;8.25;;;;;;;16.12;100.00;99353.95;1637965;87;21234;-79
2022/10/02 03:50:20;;;;;;;17.90;9.43;;;;;;;16.04;100.00;99342.70;1637578;87;22639;-79
2022/10/02 03:53:33;;;;;;;19.10;9.73;;;;;;;16.05;100.00;99342.48;1637884;87;21214;-79
2022/10/02 03:56:47;;;;;;;12.95;8.18;;;;;;;16.08;100.00;99339.78;1637824;87;21340;-78
2022/10/02 04:00:04;;;;;;;16.73;8.78;;;;;;;16.10;100.00;99331.58;1637212;87;21250;-79
2022/10/02 04:03:21;;;;;;;19.25;8.95;;;;;;;15.97;100.00;99330.94;1637825;87;21552;-79
2022/10/02 04:07:05;;;;;;;17.42;8.98;;;;;;;15.93;100.00;99333.86;1637820;87;21229;-79
2022/10/02 04:10:31;;;;;;;17.23;8.23;;;;;;;16.00;100.00;99331.86;1637801;87;21877;-79
2022/10/02 04:13:54;;;;;;;16.55;8.58;;;;;;;15.98;100.00;99340.89;1637909;87;21849;-79
2022/10/02 04:17:26;;;;;;;13.03;7.40;;;;;;;16.01;100.00;99348.16;1637918;87;21214;-79
2022/10/02 04:20:36;;;;;;;14.78;7.55;;;;;;;16.14;100.00;99349.02;1637671;87;21250;-79
2022/10/02 04:23:56;;;;;;;16.07;7.40;;;;;;;16.24;100.00;99332.76;1638039;87;21218;-79
2022/10/02 04:27:23;;;;;;;13.88;7.67;;;;;;;16.27;100.00;99332.27;1637979;87;21238;-78
2022/10/02 04:30:29;;;;;;;14.58;6.72;;;;;;;16.42;100.00;99334.05;1642494;85;21284;-79
2022/10/02 04:33:34;;;;;;;13.93;6.95;;;;;;;16.51;100.00;99327.61;1703520;84;21181;-79
2022/10/02 04:37:21;;;;;;;13.85;6.35;;;;;;;16.67;100.00;99327.46;1703729;84;21248;-79
2022/10/02 04:40:52;;;;;;;12.28;6.58;;;;;;;16.70;100.00;99325.58;1702966;84;21244;-79
2022/10/02 04:44:31;;;;;;;12.28;5.83;;;;;;;16.70;100.00;99320.93;1703052;84;21419;-79
2022/10/02 04:47:58;;;;;;;17.67;6.17;;;;;;;16.80;100.00;99325.88;1702552;84;21264;-79
2022/10/02 04:51:27;;;;;;;13.80;6.08;;;;;;;16.86;100.00;99318.00;1702712;84;21213;-78
2022/10/02 04:55:17;;;;;;;7.20;4.55;;;;;;;16.93;100.00;99324.77;1701602;84;21801;-79
2022/10/02 04:58:18;;;;;;;13.85;5.90;;;;;;;16.99;100.00;99325.20;1703139;84;21213;-79
2022/10/02 05:01:45;;;;;;;12.80;6.17;;;;;;;17.06;100.00;99322.59;1701892;84;21287;-79
2022/10/02 05:04:59;;;;;;;12.82;6.80;;;;;;;17.11;100.00;99325.46;1702842;84;21759;-78
2022/10/02 05:08:33;;;;;;;10.78;6.08;;;;;;;17.16;100.00;99315.61;1701882;84;21228;-79
2022/10/02 05:12:18;;;;;;;18.45;7.20;;;;;;;17.22;100.00;99309.09;1702676;84;21217;-79
2022/10/02 05:15:32;;;;;;;14.83;7.00;;;;;;;17.25;100.00;99298.95;1699013;84;21268;-78
2022/10/02 05:19:03;;;;;;;16.37;7.17;;;;;;;17.19;100.00;99277.83;1703680;84;21236;-79
2022/10/02 05:22:35;;;;;;;9.38;5.90;;;;;;;17.22;100.00;99285.09;1702933;84;21739;-78
2022/10/02 05:26:15;;;;;;;19.75;7.10;;;;;;;17.32;100.00;99288.61;1703675;84;21810;-78
2022/10/02 05:29:34;;;;;;;14.47;7.00;;;;;;;17.39;100.00;99282.38;1703713;84;21176;-79
2022/10/02 05:32:51;;;;;;;10.25;6.67;;;;;;;17.42;100.00;99280.52;1712088;83;21275;-79
2022/10/02 05:36:31;;;;;;;13.95;6.45;;;;;;;17.44;100.00;99271.42;1716612;83;21205;-79
2022/10/02 05:39:41;;;;;;;14.33;6.50;;;;;;;17.47;100.00;99257.67;1716638;83;21260;-79
2022/10/02 05:42:52;;;;;;;12.07;6.58;;;;;;;17.51;100.00;99258.31;1715366;83;21207;-79
2022/10/02 05:46:02;;;;;;;12.88;6.60;;;;;;;17.54;100.00;99246.73;1716145;83;21212;-79
2022/10/02 05:49:22;;;;;;;14.15;6.65;;;;;;;17.60;100.00;99236.64;1716626;83;21244;-79
2022/10/02 05:52:54;;;;;;;11.30;6.12;;;;;;;17.58;100.00;99233.27;1715801;83;21762;-79
2022/10/02 05:56:10;;;;;;;14.13;6.65;;;;;;;17.48;100.00;99226.17;1716525;83;21176;-79
2022/10/02 05:59:30;;;;;;;14.33;7.08;;;;;;;17.51;100.00;99219.61;1716600;83;21184;-79
2022/10/02 06:02:52;;;;;;;13.93;6.53;;;;;;;17.50;100.00;99212.41;1715490;83;21239;-80
2022/10/02 06:06:11;;;;;;;19.75;8.18;;;;;;;17.57;100.00;99192.34;1715186;83;21196;-79
2022/10/02 06:09:23;;;;;;;11.80;6.63;;;;;;;17.62;100.00;99196.58;1715456;83;21216;-79
2022/10/02 06:12:51;;;;;;;9.30;6.67;;;;;;;17.70;100.00;99192.58;1716236;83;21220;-79
2022/10/02 06:16:19;;;;;;;11.35;6.90;;;;;;;17.77;100.00;99185.52;1716506;83;21239;-79
2022/10/02 06:19:36;;;;;;;21.50;6.55;;;;;;;17.83;100.00;99189.52;1716294;83;21774;-79
2022/10/02 06:22:44;;;;;;;12.05;6.30;;;;;;;17.87;100.00;99173.23;1715886;83;21235;-78
2022/10/02 06:26:10;;;;;;;8.93;6.47;;;;;;;17.93;100.00;99168.66;1716874;83;21232;-78
2022/10/02 06:29:31;;;;;;;12.00;6.20;;;;;;;17.99;100.00;99167.64;1716572;83;21239;-78
2022/10/02 06:32:47;;;;;;;10.80;6.15;;;;;;;17.98;100.00;99148.82;1714779;83;21227;-79
2022/10/02 06:36:10;;;;;;;11.50;5.75;;;;;;;17.95;100.00;99149.31;1716584;83;21200;-79
2022/10/02 06:39:30;;;;;;;13.20;6.92;;;;;;;18.02;100.00;99156.05;1716644;83;21184;-78
2022/10/02 06:43:04;;;;;;;11.00;6.25;;;;;;;18.08;100.00;99142.05;1715504;83;21850;-78
2022/10/02 06:46:32;;;;;;;12.98;5.92;;;;;;;18.14;100.00;99137.42;1716553;83;21762;-78
2022/10/02 06:50:04;;;;;;;12.00;6.75;;;;;;;18.18;100.00;99127.53;1716660;83;21204;-78
2022/10/02 06:53:34;;;;;;;15.35;6.87;;;;;;;18.20;100.00;99129.48;1715002;83;22493;-78
2022/10/02 06:56:44;;;;;;;16.82;6.42;;;;;;;18.30;100.00;99127.41;1716449;83;21192;-78
2022/10/02 07:00:18;;;;;;;16.48;7.28;;;;;;;18.33;100.00;99140.20;1716791;83;21199;-78
2022/10/02 07:03:33;;;;;;;16.00;6.85;;;;;;;18.31;100.00;99144.33;1715315;83;21227;-78
2022/10/02 07:07:20;;;;;;;14.93;7.60;;;;;;;18.30;100.00;99131.55;1716520;83;21200;-78
2022/10/02 07:10:42;;;;;;;10.28;6.92;;;;;;;18.25;100.00;99128.72;1656727;86;21223;-78
2022/10/02 07:14:26;;;;;;;11.18;7.35;;;;;;;18.28;100.00;99129.61;1625233;85;21286;-79
2022/10/02 07:17:46;;;;;;;13.08;7.35;;;;;;;18.28;100.00;99122.69;1681651;85;21291;-79
2022/10/02 07:21:23;;;;;;;14.90;6.83;;;;;;;18.31;100.00;99131.87;1680971;85;21886;-80
2022/10/02 07:24:45;;;;;;;12.65;7.50;;;;;;;18.33;100.00;99124.14;1682196;85;21209;-77
2022/10/02 07:28:02;;;;;;;18.70;7.60;;;;;;;18.36;100.00;99123.64;1682040;85;21204;-78
2022/10/02 07:31:29;;;;;;;14.15;7.50;;;;;;;18.32;100.00;99116.94;1682297;85;21185;-78
2022/10/02 07:35:05;;;;;;;13.18;7.28;;;;;;;18.32;100.00;99110.84;1646186;85;21932;-78
2022/10/02 07:38:44;;;;;;;11.97;7.22;;;;;;;18.31;100.00;99108.34;1679042;85;21208;-79
2022/10/02 07:42:13;;;;;;;15.83;7.03;;;;;;;18.32;100.00;99098.94;1678927;85;21629;-78
2022/10/02 07:45:35;;;;;;;9.48;6.70;;;;;;;18.36;100.00;99096.78;1656250;86;21815;-78
2022/10/02 07:48:51;;;;;;;13.53;7.45;;;;;;;18.44;100.00;99083.03;1678096;85;21442;-79
2022/10/02 07:52:24;;;;;;;14.20;7.30;;;;;;;18.40;100.00;99063.91;1655243;86;21371;-79
2022/10/02 07:55:35;;;;;;;13.68;7.60;;;;;;;18.39;100.00;99046.98;1678773;85;21204;-79
2022/10/02 07:59:53;;;;;;;;;;;;;;;;;;;;;
2022/10/02 08:03:38;;;;;;;;;;;;;;;;;;;;;
2022/10/02 08:11:43;;;;;;;23.75;9.15;;;;;;;18.14;100.00;99031.73;1621105;88;21279;-84
2022/10/02 08:15:53;;;;;;;;;;;;;;;;;;;;;
2022/10/02 08:30:03;;;;;;;13.53;8.50;;;;;;;17.46;100.00;99006.67;1858179;76;22190;-80
2022/10/02 08:33:08;;;;;;;15.90;9.03;;;;;;;17.45;100.00;99011.88;1750768;81;21180;-80
2022/10/02 08:36:35;;;;;;;18.30;8.88;;;;;;;17.47;100.00;99008.89;1735837;82;21217;-81
2022/10/02 08:39:54;;;;;;;14.68;8.38;;;;;;;17.55;100.00;99013.96;1712317;83;21227;-80
2022/10/02 08:43:10;;;;;;;15.23;8.30;;;;;;;17.72;100.00;99018.94;1748261;82;21813;-80
2022/10/02 08:46:32;;;;;;;15.25;8.83;;;;;;;17.81;100.00;99016.61;1751285;82;21153;-82
2022/10/02 08:50:29;;;;;;;16.32;8.43;;;;;;;17.77;100.00;99025.12;1720300;83;21342;-83
2022/10/02 08:54:12;;;;;;;14.20;8.35;;;;;;;17.73;100.00;99026.68;1731454;82;21730;-81
2022/10/02 08:57:32;;;;;;;14.07;7.47;;;;;;;17.72;100.00;99023.08;1736177;82;21311;-81
2022/10/02 09:01:00;;;;;;;15.05;8.55;;;;;;;17.72;100.00;99014.78;1736554;82;21587;-81
2022/10/02 09:04:44;;;;;;;13.88;6.92;;;;;;;17.59;100.00;99009.05;1730706;82;21197;-81
2022/10/02 09:08:19;;;;;;;16.85;9.50;;;;;;;17.54;100.00;99008.98;1735954;82;21215;-81
2022/10/02 09:11:37;;;;;;;14.03;7.70;;;;;;;17.46;100.00;99005.28;1736411;82;21197;-80
2022/10/02 09:14:59;;;;;;;13.88;8.35;;;;;;;17.48;100.00;99004.48;1735263;82;21256;-81
2022/10/02 09:18:27;;;;;;;15.85;8.13;;;;;;;17.35;100.00;98989.62;1734939;82;21816;-82
2022/10/02 09:22:12;;;;;;;11.73;7.20;;;;;;;17.25;100.00;98979.78;1736863;82;22078;-82
2022/10/02 09:25:36;;;;;;;17.80;8.63;;;;;;;17.29;100.00;98980.96;1737235;82;21157;-82
2022/10/02 09:28:59;;;;;;;12.00;7.42;;;;;;;17.22;100.00;98970.09;1708602;84;21757;-81
2022/10/02 09:32:20;;;;;;;13.95;7.53;;;;;;;17.21;100.00;98963.42;1706721;84;21257;-81
2022/10/02 09:35:58;;;;;;;14.55;6.75;;;;;;;17.20;100.00;98956.22;1706331;84;21212;-81
2022/10/02 09:39:15;;;;;;;11.15;6.10;;;;;;;17.16;100.00;98946.21;1705287;84;21209;-82
2022/10/02 09:43:01;;;;;;;10.53;7.25;;;;;;;17.13;100.00;98926.56;1705683;84;21197;-81
2022/10/02 09:46:52;;;;;;;14.95;7.28;;;;;;;17.06;100.00;98912.36;1706086;84;21161;-80
2022/10/02 09:50:25;;;;;;;11.00;6.60;;;;;;;17.14;100.00;98890.94;1705237;84;21217;-80
2022/10/02 09:53:59;;;;;;;10.23;6.15;;;;;;;17.17;100.00;98879.36;1705250;84;21750;-78
2022/10/02 09:57:16;;;;;;;10.38;6.78;;;;;;;17.16;100.00;98879.08;1706073;84;21189;-79
2022/10/02 10:01:08;;;;;;;12.23;6.22;;;;;;;17.24;100.00;98875.34;1704762;84;21213;-80
2022/10/02 10:04:48;;;;;;;15.18;7.03;;;;;;;17.27;100.00;98858.80;1704808;84;21217;-80
2022/10/02 10:08:30;;;;;;;9.10;6.03;;;;;;;17.20;100.00;98846.54;1703706;84;21205;-80
2022/10/02 10:11:57;;;;;;;11.08;7.62;;;;;;;17.24;100.00;98835.27;1704730;84;21688;-79
2022/10/02 10:16:00;;;;;;;10.90;6.53;;;;;;;17.31;100.00;98831.79;1699951;83;21760;-79
2022/10/02 10:19:36;;;;;;;11.15;6.28;;;;;;;17.42;100.00;98827.77;1696742;84;21237;-79
2022/10/02 10:23:19;;;;;;;17.95;8.03;;;;;;;17.45;100.00;98817.56;1713413;83;21235;-80
2022/10/02 10:26:56;;;;;;;13.62;6.20;;;;;;;17.36;100.00;98806.12;1697630;84;21578;-80
2022/10/02 10:30:12;;;;;;;9.90;5.80;;;;;;;17.21;100.00;98790.18;1708526;83;21193;-80
2022/10/02 10:33:57;;;;;;;10.40;6.65;;;;;;;17.18;100.00;98770.00;1740822;82;21821;-79
2022/10/02 10:41:00;;;;;;;12.28;7.58;;;;;;;17.24;100.00;98748.78;1740526;82;21173;-79
2022/10/02 10:44:32;;;;;;;11.57;6.70;;;;;;;17.19;100.00;98742.65;1740457;82;21738;-79
2022/10/02 10:47:46;;;;;;;12.37;7.03;;;;;;;17.19;100.00;98732.14;1741315;82;21213;-79
2022/10/02 10:51:21;;;;;;;11.35;6.15;;;;;;;17.28;100.00;98725.91;1739248;82;21181;-79
2022/10/02 10:54:55;;;;;;;13.62;6.83;;;;;;;17.33;100.00;98733.42;1741577;82;21146;-79
2022/10/02 10:58:28;;;;;;;11.05;6.30;;;;;;;17.33;100.00;98718.22;1741153;82;21158;-79
2022/10/02 11:01:48;;;;;;;8.43;5.92;;;;;;;17.49;100.00;98712.30;1741552;82;21240;-78
2022/10/02 11:05:18;;;;;;;10.32;6.00;;;;;;;17.57;100.00;98709.09;1740255;82;21169;-79
2022/10/02 11:09:21;;;;;;;11.47;5.93;;;;;;;17.57;100.00;98704.39;1741056;82;21189;-79
2022/10/02 11:12:48;;;;;;;12.45;6.30;;;;;;;17.60;100.00;98701.11;1740238;82;21897;-79
2022/10/02 11:15:59;;;;;;;8.45;5.60;;;;;;;17.66;100.00;98698.39;1740713;82;21734;-79
2022/10/02 11:19:25;;;;;;;11.97;6.65;;;;;;;17.53;100.00;98692.17;1741553;82;21729;-79
2022/10/02 11:22:58;;;;;;;8.33;5.40;;;;;;;17.53;100.00;98683.88;1741444;82;21232;-79
2022/10/02 11:26:31;;;;;;;9.83;5.58;;;;;;;17.57;100.00;98686.42;1741710;82;21702;-79
2022/10/02 11:29:50;;;;;;;11.93;5.95;;;;;;;17.59;100.00;98672.33;1741525;82;21793;-79
2022/10/02 11:33:00;;;;;;;13.83;6.10;;;;;;;17.59;100.00;98664.86;1754317;82;21231;-79
2022/10/02 11:36:42;;;;;;;9.50;5.45;;;;;;;17.53;100.00;98660.39;1753396;82;21252;-79
2022/10/02 11:40:26;;;;;;;8.80;5.42;;;;;;;17.55;100.00;98658.73;1754289;82;21693;-78
2022/10/02 11:44:05;;;;;;;8.63;5.47;;;;;;;17.51;100.00;98659.83;1753763;82;21196;-79
2022/10/02 11:47:48;;;;;;;15.38;6.83;;;;;;;17.50;100.00;98656.79;1753411;82;21737;-80
2022/10/02 11:51:34;;;;;;;7.55;5.50;;;;;;;17.47;100.00;98657.30;1709090;83;21235;-79
2022/10/02 11:55:16;;;;;;;11.03;5.70;;;;;;;17.38;100.00;98642.28;1706133;84;21726;-79
2022/10/02 11:58:38;;;;;;;10.10;5.00;;;;;;;17.31;100.00;98641.64;1720651;82;21263;-81
2022/10/02 12:02:16;;;;;;;9.18;4.87;;;;;;;17.30;100.00;98630.30;1691170;85;21207;-80
2022/10/02 12:05:43;;;;;;;9.35;4.33;;;;;;;17.22;100.00;98627.48;1664117;86;21206;-80
2022/10/02 12:09:16;;;;;;;9.83;4.70;;;;;;;17.17;100.00;98626.57;1712479;81;21216;-79
2022/10/02 12:12:36;;;;;;;9.48;5.28;;;;;;;17.18;100.00;98628.27;1754573;82;21208;-80
2022/10/02 12:16:18;;;;;;;10.75;5.62;;;;;;;17.11;100.00;98629.83;1754754;82;21753;-80
2022/10/02 12:27:31;;;;;;;15.93;7.95;;;;;;;16.96;100.00;98591.00;1753135;82;21176;-79
2022/10/02 12:31:09;;;;;;;13.20;7.30;;;;;;;16.93;100.00;98595.10;1754074;82;21216;-79
2022/10/02 12:35:00;;;;;;;9.38;5.90;;;;;;;16.92;100.00;98600.34;1706673;84;21192;-80
2022/10/02 12:38:51;;;;;;;9.63;5.92;;;;;;;16.85;100.00;98602.48;1707197;84;21217;-79
2022/10/02 12:42:40;;;;;;;11.43;6.42;;;;;;;16.78;100.00;98592.17;1714443;83;21188;-79
2022/10/02 12:46:12;;;;;;;14.03;6.53;;;;;;;16.81;100.00;98584.22;1702447;84;21738;-79
2022/10/02 12:49:48;;;;;;;12.25;6.30;;;;;;;16.80;100.00;98579.80;1714161;82;21199;-79
2022/10/02 12:53:37;;;;;;;12.20;6.47;;;;;;;16.77;100.00;98570.64;1686595;85;21208;-78
2022/10/02 12:56:55;;;;;;;9.53;6.25;;;;;;;16.85;100.00;98567.97;1702482;84;21178;-80
2022/10/02 13:00:15;;;;;;;9.68;5.67;;;;;;;16.78;100.00;98566.78;1715671;83;21160;-80
2022/10/02 13:03:54;;;;;;;10.23;6.17;;;;;;;16.75;100.00;98567.83;1701426;84;21193;-80
2022/10/02 13:07:25;;;;;;;7.95;6.20;;;;;;;16.69;100.00;98567.47;1715489;82;21764;-80
2022/10/02 13:10:33;;;;;;;12.55;5.90;;;;;;;16.71;100.00;98557.84;1702483;84;21253;-80
2022/10/02 13:14:04;;;;;;;11.53;6.58;;;;;;;16.72;100.00;98548.50;1714226;82;21243;-79
2022/10/02 13:17:17;;;;;;;11.18;5.72;;;;;;;16.72;100.00;98537.45;1702064;84;21240;-79
2022/10/02 13:20:44;;;;;;;10.93;6.87;;;;;;;16.69;100.00;98539.86;1715759;83;21160;-79
2022/10/02 13:24:14;;;;;;;13.80;7.08;;;;;;;16.70;100.00;98535.48;1701746;84;21224;-79
2022/10/02 13:27:49;;;;;;;8.80;6.55;;;;;;;16.69;100.00;98528.27;1715660;82;21231;-79
2022/10/02 13:31:12;;;;;;;11.55;5.90;;;;;;;16.71;100.00;98528.03;1700923;84;21201;-78
2022/10/02 13:34:53;;;;;;;8.88;5.75;;;;;;;16.67;100.00;98531.84;1706186;82;21192;-78
2022/10/02 13:38:26;;;;;;;13.75;6.33;;;;;;;16.67;100.00;98526.33;1741045;82;21247;-79
2022/10/02 13:42:01;;;;;;;12.58;5.75;;;;;;;16.66;100.00;98527.42;1741232;82;21189;-79
2022/10/02 13:45:40;;;;;;;7.40;3.95;;;;;;;16.57;100.00;98520.14;1741713;82;21204;-80
2022/10/02 13:49:05;;;;;;;5.92;3.22;;;;;;;16.57;100.00;98528.42;1740396;82;21177;-80
2022/10/02 13:52:43;;;;;;;4.83;3.17;;;;;;;16.59;100.00;98538.65;1740777;82;21185;-80
2022/10/02 13:56:17;;;;;;;5.53;1.98;;;;;;;16.54;100.00;98537.77;1741567;82;21208;-80
2022/10/02 13:59:51;;;;;;;6.55;1.60;;;;;;;16.49;100.00;98544.05;1739870;82;21196;-80
2022/10/02 14:03:13;;;;;;;3.47;1.90;;;;;;;16.27;100.00;98538.52;1740488;82;21173;-80
2022/10/02 14:06:32;;;;;;;5.50;1.82;;;;;;;16.26;100.00;98536.03;1741666;82;21181;-80
2022/10/02 14:10:18;;;;;;;2.92;1.92;;;;;;;16.38;100.00;98532.61;1741387;82;21757;-79
2022/10/02 14:13:54;;;;;;;2.95;2.33;;;;;;;16.35;100.00;98526.22;1740871;82;21209;-80
2022/10/02 14:17:28;;;;;;;5.72;2.17;;;;;;;16.24;100.00;98524.44;1741573;82;21161;-80
2022/10/02 14:20:47;;;;;;;3.52;2.17;;;;;;;16.15;100.00;98536.45;1741726;82;21169;-81
2022/10/02 14:24:58;;;;;;;3.92;2.37;;;;;;;16.10;100.00;98539.98;1740846;82;21845;-80
2022/10/02 14:28:02;;;;;;;3.70;2.10;;;;;;;16.05;100.00;98530.81;1740252;82;21177;-79
2022/10/02 14:31:31;;;;;;;4.10;2.20;;;;;;;16.04;100.00;98538.77;1741603;82;21189;-79
2022/10/02 14:35:03;;;;;;;6.13;2.40;;;;;;;15.97;100.00;98536.75;1748671;82;21235;-79
2022/10/02 14:38:49;;;;;;;3.20;2.37;;;;;;;15.94;100.00;98549.66;1754204;82;21192;-80
2022/10/02 14:42:15;;;;;;;5.33;2.40;;;;;;;15.92;100.00;98547.16;1754511;82;21698;-79
2022/10/02 14:45:26;;;;;;;4.22;2.33;;;;;;;15.87;100.00;98547.09;1754808;82;21157;-79
2022/10/02 14:49:04;;;;;;;2.77;1.95;;;;;;;15.83;100.00;98554.20;1754352;82;21169;-79
2022/10/02 14:52:37;;;;;;;9.63;2.80;;;;;;;15.79;100.00;98558.55;1754376;82;21236;-80
2022/10/02 14:55:59;;;;;;;8.13;2.72;;;;;;;15.67;100.00;98555.90;1754862;82;21145;-80
2022/10/02 14:59:29;;;;;;;5.80;2.75;;;;;;;15.65;100.00;98558.05;1715587;83;21167;-80
2022/10/02 15:03:03;;;;;;;4.15;2.20;;;;;;;15.60;100.00;98569.80;1700598;84;21217;-80
2022/10/02 15:06:31;;;;;;;5.28;2.37;;;;;;;15.54;100.00;98558.95;1718986;83;21176;-80
2022/10/02 15:10:00;;;;;;;5.10;2.40;;;;;;;15.47;100.00;98559.11;1700817;84;21170;-80
2022/10/02 15:13:44;;;;;;;5.47;2.35;;;;;;;15.44;100.00;98551.91;1718593;83;21756;-80
2022/10/02 15:20:59;;;;;;;3.37;2.40;;;;;;;15.39;100.00;98559.55;1718896;83;21227;-80
2022/10/02 15:24:05;;;;;;;8.50;3.10;;;;;;;15.35;100.00;98561.13;1699812;84;21193;-80
2022/10/02 15:27:31;;;;;;;4.17;2.60;;;;;;;15.35;100.00;98561.13;1717711;83;21156;-80
2022/10/02 15:30:38;;;;;;;4.83;3.00;;;;;;;15.34;100.00;98551.20;1701048;84;21628;-80
2022/10/02 15:34:09;;;;;;;4.62;2.40;;;;;;;15.32;100.00;98559.69;1717849;83;21167;-79
2022/10/02 15:37:44;;;;;;;6.55;2.55;;;;;;;15.30;100.00;98563.25;1670510;85;21232;-79
2022/10/02 15:40:59;;;;;;;4.05;2.70;;;;;;;15.31;100.00;98568.22;1691280;85;21214;-78
2022/10/02 15:44:23;;;;;;;2.92;2.15;;;;;;;15.25;100.00;98568.67;1707797;83;21208;-80
2022/10/02 15:47:59;;;;;;;5.00;2.52;;;;;;;15.25;100.00;98575.56;1690943;85;21221;-79
2022/10/02 15:51:27;;;;;;;3.42;2.62;;;;;;;15.26;100.00;98579.14;1708816;84;21203;-79
2022/10/02 15:54:55;;;;;;;3.50;2.20;;;;;;;15.23;100.00;98589.27;1680529;85;21216;-78
2022/10/02 15:58:39;;;;;;;4.97;2.72;;;;;;;15.25;100.00;98593.46;1690782;85;21767;-79
2022/10/02 16:02:26;;;;;;;5.17;3.02;;;;;;;15.25;100.00;98592.63;1709016;84;21176;-80
2022/10/02 16:06:03;;;;;;;5.25;2.85;;;;;;;15.23;100.00;98590.64;1681700;85;21273;-79
2022/10/02 16:09:45;;;;;;;3.80;3.02;;;;;;;15.22;100.00;98582.09;1707513;83;21196;-80
2022/10/02 16:13:00;;;;;;;6.87;3.22;;;;;;;15.21;100.00;98585.39;1680168;85;21235;-79
2022/10/02 16:16:30;;;;;;;3.05;2.52;;;;;;;15.22;100.00;98598.63;1679141;85;21751;-79
2022/10/02 16:20:04;;;;;;;3.72;2.75;;;;;;;15.19;100.00;98594.43;1708697;84;21327;-78
2022/10/02 16:23:29;;;;;;;2.67;2.42;;;;;;;15.24;100.00;98606.08;1682302;85;21209;-80
2022/10/02 16:26:48;;;;;;;3.90;2.60;;;;;;;15.22;100.00;98604.13;1707650;84;21168;-79